createdAt,value
2023-02-13T00:01:24.851Z,7.80
2023-02-13T00:03:52.242Z,7.53
2023-02-13T00:06:19.321Z,7.03
2023-02-13T00:08:48.876Z,7.65
2023-02-13T00:11:18.510Z,5.53
2023-02-13T00:13:45.982Z,7.20
2023-02-13T00:16:15.538Z,7.90
2023-02-13T00:18:45.466Z,12.27
2023-02-13T00:21:13.519Z,7.70
2023-02-13T00:23:40.853Z,6.97
2023-02-13T00:26:12.665Z,7.38
2023-02-13T00:28:42.855Z,6.75
2023-02-13T00:31:15.473Z,7.80
2023-02-13T00:33:43.472Z,7.60
2023-02-13T00:36:13.723Z,7.22
2023-02-13T00:38:42.508Z,8.02
2023-02-13T00:41:12.778Z,9.20
2023-02-13T00:43:40.409Z,6.18
2023-02-13T00:46:07.586Z,7.75
2023-02-13T00:48:35.500Z,7.35
2023-02-13T00:51:03.338Z,8.30
2023-02-13T00:53:33.895Z,6.53
2023-02-13T00:56:01.230Z,8.07
2023-02-13T00:58:28.735Z,8.68
2023-02-13T01:00:56.313Z,9.90
2023-02-13T01:03:24.354Z,9.88
2023-02-13T01:05:53.837Z,7.03
2023-02-13T01:08:21.447Z,11.98
2023-02-13T01:10:51.796Z,7.68
2023-02-13T01:13:19.158Z,9.85
2023-02-13T01:15:47.370Z,8.75
2023-02-13T01:18:16.705Z,6.45
2023-02-13T01:20:55.528Z,9.55
2023-02-13T01:23:23.073Z,7.47
2023-02-13T01:25:52.383Z,10.18
2023-02-13T01:28:19.844Z,7.65
2023-02-13T01:30:53.865Z,7.85
2023-02-13T01:33:22.523Z,8.93
2023-02-13T01:35:52.657Z,11.15
2023-02-13T01:38:20.455Z,7.20
2023-02-13T01:40:48.264Z,8.35
2023-02-13T01:43:15.897Z,8.77
2023-02-13T01:45:48.832Z,9.80
2023-02-13T01:48:25.615Z,8.00
2023-02-13T01:50:52.630Z,6.85
2023-02-13T01:53:41.945Z,6.75
2023-02-13T01:56:19.330Z,7.28
2023-02-13T01:58:56.092Z,6.10
2023-02-13T02:01:24.175Z,7.25
2023-02-13T02:03:54.530Z,5.75
2023-02-13T02:06:28.750Z,5.75
2023-02-13T02:09:00.233Z,6.82
2023-02-13T02:11:44.588Z,5.75
2023-02-13T02:14:12.000Z,7.55
2023-02-13T02:16:39.066Z,7.65
2023-02-13T02:19:25.666Z,6.97
2023-02-13T02:22:16.274Z,6.07
2023-02-13T02:24:58.380Z,8.90
2023-02-13T02:27:37.333Z,9.57
2023-02-13T02:30:25.813Z,6.68
2023-02-13T02:33:30.521Z,8.00
2023-02-13T02:36:23.087Z,7.30
2023-02-13T02:39:21.772Z,7.53
2023-02-13T02:41:58.230Z,8.00
2023-02-13T02:44:30.972Z,7.55
2023-02-13T02:47:16.393Z,7.10
2023-02-13T02:49:54.429Z,10.25
2023-02-13T02:52:47.197Z,7.65
2023-02-13T02:55:46.891Z,8.35
2023-02-13T02:58:19.764Z,8.98
2023-02-13T03:00:50.467Z,9.57
2023-02-13T03:03:26.164Z,8.48
2023-02-13T03:05:55.020Z,6.35
2023-02-13T03:08:22.425Z,10.90
2023-02-13T03:10:52.308Z,9.85
2023-02-13T03:13:38.833Z,7.03
2023-02-13T03:16:06.600Z,9.45
2023-02-13T03:18:39.230Z,7.53
2023-02-13T03:21:15.966Z,7.88
2023-02-13T03:23:46.061Z,10.13
2023-02-13T03:26:18.771Z,8.25
2023-02-13T03:28:52.354Z,8.48
2023-02-13T03:31:55.838Z,7.72
2023-02-13T03:34:31.068Z,7.80
2023-02-13T03:37:05.220Z,8.88
2023-02-13T03:39:49.472Z,5.70
2023-02-13T03:42:35.757Z,8.35
2023-02-13T03:45:11.700Z,7.88
2023-02-13T03:47:42.876Z,8.43
2023-02-13T03:50:12.470Z,7.30
2023-02-13T03:52:51.343Z,7.25
2023-02-13T03:55:27.861Z,6.00
2023-02-13T03:57:58.619Z,5.57
2023-02-13T04:03:32.783Z,5.93
2023-02-13T04:06:09.374Z,8.38
2023-02-13T04:08:36.563Z,4.72
2023-02-13T04:11:30.212Z,5.05
2023-02-13T04:13:59.140Z,7.75
2023-02-13T04:16:35.233Z,7.38
2023-02-13T04:19:03.691Z,4.78
2023-02-13T04:21:35.534Z,5.35
2023-02-13T04:24:02.894Z,6.22
2023-02-13T04:26:42.771Z,3.40
2023-02-13T04:29:10.103Z,4.97
2023-02-13T04:31:37.687Z,5.75
2023-02-13T04:34:04.798Z,6.68
2023-02-13T04:36:32.528Z,7.40
2023-02-13T04:38:59.584Z,4.88
2023-02-13T04:41:26.992Z,5.63
2023-02-13T04:43:54.084Z,4.95
2023-02-13T04:46:26.562Z,10.68
2023-02-13T04:48:56.105Z,7.50
2023-02-13T04:51:23.523Z,8.52
2023-02-13T04:53:50.589Z,5.15
2023-02-13T04:56:19.838Z,3.83
2023-02-13T04:58:49.429Z,5.10
2023-02-13T05:01:17.861Z,4.95
2023-02-13T05:03:44.991Z,7.03
2023-02-13T05:06:14.832Z,7.50
2023-02-13T05:08:41.868Z,4.88
2023-02-13T05:11:09.201Z,5.65
2023-02-13T05:13:38.686Z,7.38
2023-02-13T05:16:06.375Z,8.70
2023-02-13T05:18:33.470Z,5.45
2023-02-13T05:21:00.885Z,6.50
2023-02-13T05:23:27.940Z,9.75
2023-02-13T05:25:55.216Z,10.35
2023-02-13T05:28:22.271Z,6.55
2023-02-13T05:30:54.502Z,5.57
2023-02-13T05:33:21.735Z,5.40
2023-02-13T05:35:51.624Z,7.95
2023-02-13T05:38:19.087Z,8.10
2023-02-13T05:40:46.429Z,7.78
2023-02-13T05:43:15.716Z,8.68
2023-02-13T05:45:45.346Z,9.52
2023-02-13T05:48:14.681Z,15.98
2023-02-13T05:50:41.990Z,10.85
2023-02-13T05:53:11.215Z,8.68
2023-02-13T05:55:40.784Z,9.60
2023-02-13T05:58:07.829Z,12.25
2023-02-13T06:00:37.471Z,10.48
2023-02-13T06:03:04.668Z,10.80
2023-02-13T06:05:32.501Z,9.02
2023-02-13T06:08:04.433Z,10.48
2023-02-13T06:10:36.581Z,9.07
2023-02-13T06:13:03.703Z,11.88
2023-02-13T06:15:33.679Z,16.52
2023-02-13T06:18:00.733Z,12.93
2023-02-13T06:20:28.092Z,12.43
2023-02-13T06:22:55.437Z,12.77
2023-02-13T06:25:25.771Z,12.43
2023-02-13T06:27:52.818Z,12.32
2023-02-13T06:30:20.894Z,12.25
2023-02-13T06:32:48.822Z,15.68
2023-02-13T06:35:16.395Z,13.48
2023-02-13T06:37:43.455Z,11.07
2023-02-13T06:40:12.230Z,10.48
2023-02-13T06:42:42.690Z,12.48
2023-02-13T06:45:10.301Z,11.70
2023-02-13T06:47:41.788Z,13.23
2023-02-13T06:50:09.946Z,15.52
2023-02-13T06:52:39.233Z,10.82
2023-02-13T06:55:06.707Z,12.23
2023-02-13T06:57:33.772Z,12.98
2023-02-13T07:00:01.556Z,14.45
2023-02-13T07:02:28.673Z,14.23
2023-02-13T07:04:56.192Z,15.05
2023-02-13T07:07:23.725Z,13.35
2023-02-13T07:09:51.166Z,13.07
2023-02-13T07:12:20.666Z,12.18
2023-02-13T07:14:48.044Z,13.05
2023-02-13T07:17:17.551Z,12.68
2023-02-13T07:19:47.097Z,12.95
2023-02-13T07:22:18.856Z,13.88
2023-02-13T07:24:48.807Z,12.55
2023-02-13T07:27:18.334Z,14.50
2023-02-13T07:29:45.872Z,15.40
2023-02-13T07:32:12.967Z,16.33
2023-02-13T07:34:52.231Z,17.63
2023-02-13T07:37:28.849Z,15.57
2023-02-13T07:39:56.313Z,15.23
2023-02-13T07:42:23.388Z,16.42
2023-02-13T07:44:50.848Z,16.17
2023-02-13T07:47:20.100Z,15.32
2023-02-13T07:49:49.923Z,14.18
2023-02-13T07:52:16.937Z,15.35
2023-02-13T07:54:44.277Z,17.77
2023-02-13T07:57:11.408Z,13.38
2023-02-13T07:59:43.453Z,16.88
2023-02-13T08:02:15.561Z,14.05
2023-02-13T08:04:45.722Z,12.60
2023-02-13T08:07:13.788Z,12.73
2023-02-13T08:09:43.822Z,13.15
2023-02-13T08:12:13.307Z,16.42
2023-02-13T08:14:43.174Z,15.07
2023-02-13T08:17:11.980Z,14.48
2023-02-13T08:19:39.445Z,12.43
2023-02-13T08:22:06.589Z,13.68
2023-02-13T08:24:38.433Z,12.00
2023-02-13T08:27:11.397Z,15.73
2023-02-13T08:29:39.276Z,14.85
2023-02-13T08:32:16.505Z,12.63
2023-02-13T08:34:50.040Z,13.75
2023-02-13T08:37:17.940Z,11.85
2023-02-13T08:39:45.311Z,12.10
2023-02-13T08:42:15.688Z,12.82
2023-02-13T08:44:48.600Z,12.65
2023-02-13T08:47:17.924Z,12.75
2023-02-13T08:49:45.299Z,12.52
2023-02-13T08:52:12.363Z,13.43
2023-02-13T08:54:39.710Z,14.50
2023-02-13T08:57:06.790Z,14.95
2023-02-13T08:59:34.169Z,14.27
2023-02-13T09:02:05.708Z,13.30
2023-02-13T09:04:32.648Z,13.27
2023-02-13T09:07:02.485Z,12.50
2023-02-13T09:09:32.992Z,13.13
2023-02-13T09:12:02.873Z,12.85
2023-02-13T09:14:34.381Z,13.27
2023-02-13T09:17:04.178Z,12.75
2023-02-13T09:19:31.362Z,11.95
2023-02-13T09:21:58.676Z,10.25
2023-02-13T09:24:27.936Z,14.00
2023-02-13T09:26:55.282Z,12.80
2023-02-13T09:29:22.410Z,13.32
2023-02-13T09:31:49.906Z,12.82
2023-02-13T09:34:19.254Z,12.85
2023-02-13T09:36:51.105Z,11.68
2023-02-13T09:39:18.150Z,11.55
2023-02-13T09:41:50.535Z,12.40
2023-02-13T09:44:17.765Z,9.57
2023-02-13T09:46:47.766Z,12.00
2023-02-13T09:49:20.565Z,12.20
2023-02-13T09:51:56.105Z,10.45
2023-02-13T09:54:23.289Z,13.45
2023-02-13T09:57:13.961Z,11.25
2023-02-13T09:59:56.428Z,12.00
2023-02-13T10:02:27.648Z,11.75
2023-02-13T10:05:29.908Z,10.73
2023-02-13T10:07:57.239Z,10.05
2023-02-13T10:10:49.093Z,11.23
2023-02-13T10:13:50.276Z,11.10
2023-02-13T10:16:25.683Z,12.10
2023-02-13T10:19:18.989Z,11.32
2023-02-13T10:22:04.515Z,10.45
2023-02-13T10:24:40.408Z,11.90
2023-02-13T10:27:48.010Z,9.65
2023-02-13T10:30:18.741Z,11.95
2023-02-13T10:33:12.942Z,9.73
2023-02-13T10:35:41.425Z,13.85
2023-02-13T10:38:17.759Z,11.50
2023-02-13T10:41:04.894Z,5.95
2023-02-13T10:43:55.094Z,4.38
2023-02-13T10:46:34.827Z,7.38
2023-02-13T10:49:28.631Z,3.05
2023-02-13T10:52:11.543Z,4.20
2023-02-13T10:55:01.530Z,4.63
2023-02-13T10:58:09.381Z,7.57
2023-02-13T11:00:43.204Z,4.53
2023-02-13T11:03:27.392Z,4.63
2023-02-13T11:05:57.137Z,4.30
2023-02-13T11:08:35.206Z,5.93
2023-02-13T11:11:02.599Z,8.27
2023-02-13T11:13:30.670Z,5.22
2023-02-13T11:16:18.377Z,3.38
2023-02-13T11:18:50.276Z,3.17
2023-02-13T11:21:23.478Z,5.05
2023-02-13T11:23:55.353Z,2.80
2023-02-13T11:26:28.494Z,4.22
2023-02-13T11:28:59.637Z,4.65
2023-02-13T11:31:36.902Z,4.97
2023-02-13T11:34:22.502Z,5.18
2023-02-13T11:37:07.626Z,6.10
2023-02-13T11:39:35.098Z,4.95
2023-02-13T11:42:02.244Z,5.40
2023-02-13T11:44:33.518Z,5.28
2023-02-13T11:47:01.777Z,3.90
2023-02-13T11:49:37.390Z,4.32
2023-02-13T11:52:20.632Z,3.13
2023-02-13T11:54:56.838Z,3.65
2023-02-13T11:57:37.524Z,6.28
2023-02-13T12:00:29.622Z,4.95
2023-02-13T12:02:56.948Z,8.13
2023-02-13T12:05:27.541Z,6.53
2023-02-13T12:08:00.798Z,8.32
2023-02-13T12:10:33.843Z,6.75
2023-02-13T12:13:13.319Z,6.57
2023-02-13T12:15:51.193Z,8.85
2023-02-13T12:18:18.342Z,7.82
2023-02-13T12:21:04.478Z,9.68
2023-02-13T12:23:45.336Z,9.52
2023-02-13T12:26:21.503Z,8.45
2023-02-13T12:29:20.999Z,7.88
2023-02-13T12:31:58.182Z,8.68
2023-02-13T12:34:35.378Z,8.90
2023-02-13T12:37:02.744Z,10.90
2023-02-13T12:39:35.656Z,11.02
2023-02-13T12:42:18.001Z,8.98
2023-02-13T12:44:50.776Z,8.25
2023-02-13T12:47:31.389Z,10.13
2023-02-13T12:50:16.818Z,9.63
2023-02-13T12:52:58.979Z,8.93
2023-02-13T12:55:36.052Z,10.75
2023-02-13T12:58:15.382Z,9.95
2023-02-13T13:01:07.663Z,8.95
2023-02-13T13:03:59.769Z,10.25
2023-02-13T13:06:29.927Z,9.48
2023-02-13T13:09:22.098Z,10.38
2023-02-13T13:12:20.045Z,10.90
2023-02-13T13:15:21.783Z,11.07
2023-02-13T13:17:59.129Z,9.85
2023-02-13T13:20:47.538Z,9.30
2023-02-13T13:23:23.358Z,12.02
2023-02-13T13:25:56.572Z,11.32
2023-02-13T13:28:26.907Z,11.57
2023-02-13T13:30:58.013Z,11.30
2023-02-13T13:33:26.684Z,9.10
2023-02-13T13:35:57.192Z,9.20
2023-02-13T13:39:01.834Z,14.70
2023-02-13T13:41:34.717Z,11.07
2023-02-13T13:44:12.902Z,13.63
2023-02-13T13:47:02.842Z,15.25
2023-02-13T13:49:52.732Z,13.43
2023-02-13T13:52:23.794Z,12.10
2023-02-13T13:54:51.651Z,11.85
2023-02-13T13:57:38.551Z,11.35
2023-02-13T14:00:08.786Z,10.77
2023-02-13T14:02:45.012Z,10.57
2023-02-13T14:05:33.111Z,13.57
2023-02-13T14:08:04.607Z,10.45
2023-02-13T14:10:34.331Z,12.85
2023-02-13T14:13:04.855Z,11.40
2023-02-13T14:15:37.746Z,11.52
2023-02-13T14:18:05.162Z,10.45
2023-02-13T14:20:40.590Z,11.02
2023-02-13T14:23:13.751Z,13.07
2023-02-13T14:25:43.622Z,10.90
2023-02-13T14:28:24.500Z,13.35
2023-02-13T14:31:04.403Z,12.85
2023-02-13T14:33:34.917Z,11.27
2023-02-13T14:36:06.055Z,12.13
2023-02-13T14:38:36.250Z,14.02
2023-02-13T14:41:03.486Z,12.77
2023-02-13T14:43:53.934Z,15.43
2023-02-13T14:46:37.275Z,13.63
2023-02-13T14:49:20.826Z,12.93
2023-02-13T14:51:55.297Z,12.00
2023-02-13T14:54:25.756Z,11.18
2023-02-13T14:56:59.461Z,10.90
2023-02-13T14:59:32.946Z,11.77
2023-02-13T15:02:18.511Z,19.42
2023-02-13T15:04:55.540Z,12.70
2023-02-13T15:07:29.652Z,9.55
2023-02-13T15:10:35.036Z,12.25
2023-02-13T15:13:03.391Z,12.07
2023-02-13T15:15:36.657Z,12.25
2023-02-13T15:18:10.310Z,12.02
2023-02-13T15:20:43.214Z,12.15
2023-02-13T15:23:23.871Z,11.20
2023-02-13T15:26:06.042Z,10.40
2023-02-13T15:28:39.054Z,11.07
2023-02-13T15:31:22.987Z,10.15
2023-02-13T15:33:51.796Z,10.25
2023-02-13T15:36:22.603Z,10.32
2023-02-13T15:38:58.219Z,10.18
2023-02-13T15:41:30.905Z,9.82
2023-02-13T15:43:59.723Z,13.27
2023-02-13T15:46:32.240Z,12.50
2023-02-13T15:49:06.218Z,9.68
2023-02-13T15:51:33.925Z,10.60
2023-02-13T15:54:06.174Z,13.35
2023-02-13T15:56:34.220Z,11.60
2023-02-13T15:59:02.847Z,10.68
2023-02-13T16:01:32.038Z,12.40
2023-02-13T16:04:16.207Z,9.82
2023-02-13T16:06:45.740Z,9.95
2023-02-13T16:09:30.103Z,10.27
2023-02-13T16:12:14.063Z,10.65
2023-02-13T16:15:07.826Z,9.60
2023-02-13T16:17:40.131Z,9.10
2023-02-13T16:20:16.571Z,8.77
2023-02-13T16:22:56.695Z,8.63
2023-02-13T16:25:36.203Z,8.65
2023-02-13T16:28:25.063Z,8.55
2023-02-13T16:31:03.968Z,10.50
2023-02-13T16:33:39.274Z,8.88
2023-02-13T16:36:09.477Z,10.30
2023-02-13T16:38:48.395Z,9.80
2023-02-13T16:41:21.563Z,10.60
2023-02-13T16:43:50.700Z,10.40
2023-02-13T16:46:26.519Z,10.65
2023-02-13T16:48:56.762Z,8.82
2023-02-13T16:51:29.818Z,11.23
2023-02-13T16:54:02.604Z,10.32
2023-02-13T16:56:47.535Z,10.93
2023-02-13T16:59:20.827Z,10.77
2023-02-13T17:01:48.229Z,12.68
2023-02-13T17:04:22.769Z,11.70
2023-02-13T17:06:55.210Z,10.13
2023-02-13T17:09:23.353Z,11.57
2023-02-13T17:11:52.590Z,12.00
2023-02-13T17:14:22.713Z,9.93
2023-02-13T17:16:54.240Z,13.40
2023-02-13T17:19:21.742Z,12.82
2023-02-13T17:21:48.812Z,10.75
2023-02-13T17:24:18.185Z,11.50
2023-02-13T17:26:47.983Z,11.27
2023-02-13T17:29:15.354Z,12.07
2023-02-13T17:31:42.525Z,13.95
2023-02-13T17:34:11.968Z,55.95
2023-02-13T17:36:39.042Z,17.05
2023-02-13T17:39:08.597Z,13.90
2023-02-13T17:41:37.900Z,12.25
2023-02-13T17:44:07.450Z,13.45
2023-02-13T17:46:34.485Z,13.63
2023-02-13T17:49:01.927Z,14.35
2023-02-13T17:51:31.619Z,14.80
2023-02-13T17:53:59.042Z,16.23
2023-02-13T17:56:26.129Z,14.50
2023-02-13T17:58:53.637Z,14.68
2023-02-13T18:01:20.836Z,15.85
2023-02-13T18:03:49.883Z,15.88
2023-02-13T18:06:16.977Z,15.65
2023-02-13T18:08:44.310Z,16.23
2023-02-13T18:11:12.427Z,15.80
2023-02-13T18:13:39.814Z,16.00
2023-02-13T18:16:10.039Z,18.20
2023-02-13T18:18:37.517Z,17.70
2023-02-13T18:21:06.917Z,17.60
2023-02-13T18:23:36.708Z,19.92
2023-02-13T18:26:10.672Z,18.23
2023-02-13T18:28:42.228Z,18.05
2023-02-13T18:31:10.177Z,19.85
2023-02-13T18:33:37.748Z,17.60
2023-02-13T18:36:05.158Z,17.75
2023-02-13T18:38:34.821Z,21.45
2023-02-13T18:41:03.622Z,17.90
2023-02-13T18:43:30.992Z,17.45
2023-02-13T18:45:58.126Z,19.73
2023-02-13T18:48:28.096Z,23.52
2023-02-13T18:50:55.147Z,19.92
2023-02-13T18:53:22.887Z,18.52
2023-02-13T18:55:50.012Z,18.08
2023-02-13T18:58:19.602Z,21.75
2023-02-13T19:00:46.672Z,20.10
2023-02-13T19:03:14.040Z,18.83
2023-02-13T19:05:43.812Z,20.50
2023-02-13T19:08:13.572Z,19.55
2023-02-13T19:10:40.831Z,21.60
2023-02-13T19:13:12.636Z,20.27
2023-02-13T19:15:42.405Z,20.52
2023-02-13T19:18:09.839Z,21.27
2023-02-13T19:20:36.932Z,19.50
2023-02-13T19:23:22.060Z,17.83
2023-02-13T19:25:51.446Z,20.23
2023-02-13T19:28:19.007Z,20.65
2023-02-13T19:30:48.677Z,19.25
2023-02-13T19:33:16.676Z,21.38
2023-02-13T19:35:43.778Z,29.02
2023-02-13T19:38:11.358Z,20.98
2023-02-13T19:40:38.396Z,20.98
2023-02-13T19:43:05.870Z,21.17
2023-02-13T19:45:33.236Z,20.65
2023-02-13T19:48:03.077Z,20.23
2023-02-13T19:50:32.411Z,22.77
2023-02-13T19:52:59.825Z,21.98
2023-02-13T19:55:27.008Z,23.35
2023-02-13T19:57:54.427Z,21.48
2023-02-13T20:00:21.754Z,20.40
2023-02-13T20:02:49.280Z,19.13
2023-02-13T20:05:18.737Z,26.95
2023-02-13T20:07:48.966Z,20.67
2023-02-13T20:10:24.295Z,21.33
2023-02-13T20:13:10.974Z,19.80
2023-02-13T20:15:40.318Z,18.65
2023-02-13T20:18:07.899Z,21.02
2023-02-13T20:20:42.560Z,18.40
2023-02-13T20:23:12.960Z,17.75
2023-02-13T20:25:40.081Z,16.17
2023-02-13T20:28:10.275Z,17.17
2023-02-13T20:30:42.310Z,17.77
2023-02-13T20:33:12.027Z,15.77
2023-02-13T20:35:39.166Z,14.32
2023-02-13T20:38:08.806Z,16.88
2023-02-13T20:40:38.340Z,15.82
2023-02-13T20:43:05.681Z,15.93
2023-02-13T20:45:32.851Z,16.27
2023-02-13T20:48:02.454Z,14.10
2023-02-13T20:50:29.496Z,14.52
2023-02-13T20:52:59.450Z,15.43
2023-02-13T20:55:28.743Z,16.70
2023-02-13T20:57:56.214Z,16.88
2023-02-13T21:00:23.399Z,18.25
2023-02-13T21:02:51.037Z,16.02
2023-02-13T21:05:21.655Z,17.35
2023-02-13T21:07:51.367Z,19.42
2023-02-13T21:10:20.686Z,18.10
2023-02-13T21:12:50.355Z,19.42
2023-02-13T21:15:19.653Z,18.27
2023-02-13T21:17:47.284Z,20.95
2023-02-13T21:20:14.384Z,21.25
2023-02-13T21:22:41.869Z,22.30
2023-02-13T21:25:09.028Z,22.42
2023-02-13T21:27:36.522Z,23.17
2023-02-13T21:30:06.664Z,21.10
2023-02-13T21:32:34.166Z,21.20
2023-02-13T21:35:01.268Z,22.23
2023-02-13T21:37:29.661Z,21.60
2023-02-13T21:39:56.941Z,21.80
2023-02-13T21:42:26.251Z,21.67
2023-02-13T21:44:58.433Z,20.30
2023-02-13T21:47:25.916Z,19.33
2023-02-13T21:49:53.163Z,18.88
2023-02-13T21:52:20.549Z,20.83
2023-02-13T21:54:48.391Z,23.40
2023-02-13T21:57:17.974Z,23.95
2023-02-13T21:59:45.113Z,23.45
2023-02-13T22:02:24.941Z,26.42
2023-02-13T22:04:52.377Z,27.92
2023-02-13T22:07:22.031Z,28.73
2023-02-13T22:09:50.451Z,27.48
2023-02-13T22:12:17.852Z,25.38
2023-02-13T22:14:45.132Z,26.08
2023-02-13T22:17:12.753Z,25.10
2023-02-13T22:19:55.206Z,26.90
2023-02-13T22:22:24.872Z,26.13
2023-02-13T22:24:52.201Z,26.27
2023-02-13T22:27:22.416Z,29.30
2023-02-13T22:29:51.268Z,26.35
2023-02-13T22:32:18.766Z,25.65
2023-02-13T22:34:54.730Z,26.77
2023-02-13T22:37:22.071Z,25.33
2023-02-13T22:39:49.089Z,26.27
2023-02-13T22:42:16.452Z,24.17
2023-02-13T22:44:46.084Z,25.63
2023-02-13T22:47:13.459Z,22.92
2023-02-13T22:49:40.555Z,22.10
2023-02-13T22:52:08.487Z,21.83
2023-02-13T22:54:43.117Z,20.92
2023-02-13T22:57:10.502Z,21.92
2023-02-13T22:59:40.094Z,21.48
2023-02-13T23:02:10.298Z,21.05
2023-02-13T23:04:37.751Z,20.63
2023-02-13T23:07:07.564Z,21.05
2023-02-13T23:09:34.687Z,23.20
2023-02-13T23:12:04.554Z,22.45
2023-02-13T23:14:31.772Z,21.75
2023-02-13T23:17:01.662Z,24.50
2023-02-13T23:19:29.489Z,23.55
2023-02-13T23:21:57.577Z,22.27
2023-02-13T23:24:24.649Z,21.58
2023-02-13T23:26:52.311Z,21.55
2023-02-13T23:29:21.962Z,24.38
2023-02-13T23:31:49.515Z,23.42
2023-02-13T23:34:18.977Z,25.98
2023-02-13T23:36:46.609Z,26.48
2023-02-13T23:39:15.976Z,27.30
2023-02-13T23:41:47.744Z,27.88
2023-02-13T23:44:14.745Z,27.80
2023-02-13T23:46:42.180Z,28.80
2023-02-13T23:49:09.367Z,25.40
2023-02-13T23:51:36.912Z,23.67
2023-02-13T23:54:04.142Z,26.70
2023-02-13T23:56:31.490Z,27.17
2023-02-13T23:59:00.873Z,24.95
